Data for 02/19/2006

Time Sea-Level Adjusted Pressure Absolute Pressure Temperature Relative Humidity Dew Point   
(mb) (inHg) (mb) (inHg) (C) (F) (%) (C) (F)
00:05 1020 30.12 849 25.07 -21.7 -7 60 -27.5 -17.6
00:10 1020 30.12 849 25.07 -21.8 -7.2 60 -27.5 -17.5
00:15 1020 30.12 849 25.07 -21.6 -6.9 61 -27.3 -17.2
00:20 1020 30.12 849 25.07 -21.5 -6.7 61 -27.2 -16.9
00:25 1020 30.12 849 25.07 -21.6 -6.9 61 -27.2 -17
00:30 1020 30.12 849 25.07 -21.4 -6.4 59 -27.3 -17.2
00:35 1020 30.12 849 25.07 -21.1 -5.9 59 -27.2 -16.9
00:40 1020 30.12 849 25.07 -21 -5.8 60 -26.9 -16.4
00:45 1020 30.12 849 25.07 -21.2 -6.1 60 -27 -16.6
00:50 1020 30.12 849 25.07 -21.3 -6.4 60 -27.1 -16.9
00:55 1020 30.12 849 25.07 -21.2 -6.2 60 -27.1 -16.7
01:00 1020 30.12 849 25.07 -21.6 -6.8 61 -27.2 -16.9
01:05 1020 30.12 849 25.07 -21.8 -7.3 63 -27.1 -16.8
01:10 1020 30.12 849 25.07 -21.7 -7 62 -27.1 -16.9
01:15 1020 30.12 849 25.07 -21.6 -6.9 62 -27.1 -16.8
01:20 1020 30.12 849 25.07 -21.6 -7 62 -27.2 -16.9
01:25 1020 30.12 849 25.07 -21.8 -7.2 62 -27.2 -17
01:30 1020 30.12 849 25.07 -21.8 -7.3 62 -27.3 -17.1
01:35 1020 30.12 849 25.07 -22 -7.5 64 -27.1 -16.8
01:40 1020 30.12 849 25.07 -22.1 -7.8 64 -27.2 -17
01:45 1020 30.12 849 25.07 -22.1 -7.7 64 -27.2 -16.9
01:50 1020 30.12 849 25.07 -22 -7.6 63 -27.2 -16.9
01:55 1020 30.12 849 25.07 -21.6 -6.8 63 -26.9 -16.5
02:00 1020 30.12 849 25.07 -20.9 -5.5 60 -26.7 -16
02:05 1020 30.12 849 25.07 -20.5 -4.8 59 -26.5 -15.7
02:10 1020 30.12 849 25.07 -20.3 -4.5 58 -26.5 -15.7
02:15 1020 30.12 849 25.07 -20.4 -4.7 59 -26.5 -15.7
02:20 1020 30.12 849 25.07 -20.6 -5 60 -26.4 -15.5
02:25 1020 30.12 849 25.07 -20.8 -5.4 61 -26.4 -15.5
02:30 1020 30.12 849 25.07 -21.3 -6.3 62 -26.7 -16
02:35 1020 30.12 849 25.07 -21.8 -7.3 64 -27 -16.5
02:40 1020 30.12 849 25.07 -21.8 -7.2 64 -27 -16.5
02:45 1020 30.12 849 25.07 -21.8 -7.2 64 -26.9 -16.5
02:50 1020 30.12 849 25.07 -21.8 -7.2 63 -27 -16.6
02:55 1020 30.12 849 25.07 -21.8 -7.2 62 -27.3 -17.1
03:00 1020 30.12 849 25.07 -21.6 -6.9 61 -27.2 -17
03:05 1020 30.12 849 25.07 -21.5 -6.7 61 -27.1 -16.8
03:10 1020 30.12 849 25.07 -21.4 -6.4 61 -27 -16.6
03:15 1020 30.12 849 25.07 -21.3 -6.4 61 -27 -16.6
03:20 1020 30.12 849 25.07 -21.4 -6.5 61 -27 -16.5
03:25 1020 30.12 849 25.07 -21.3 -6.4 62 -26.7 -16.1
03:30 1020 30.12 849 25.07 -21.4 -6.6 63 -26.7 -16
03:35 1020 30.12 849 25.07 -21.3 -6.3 63 -26.5 -15.8
03:40 1020 30.12 849 25.07 -21.2 -6.2 64 -26.4 -15.5
03:45 1019 30.09 849 25.07 -21.1 -5.9 63 -26.4 -15.5
03:50 1019 30.09 849 25.07 -21 -5.7 64 -26.2 -15.1
03:55 1019 30.09 849 25.07 -20.9 -5.6 64 -26 -14.8
04:00 1019 30.09 849 25.07 -20.9 -5.7 66 -25.8 -14.4
04:05 1019 30.09 849 25.07 -20.9 -5.6 63 -26.2 -15.2
04:10 1019 30.09 849 25.07 -21.3 -6.3 63 -26.5 -15.7
04:15 1019 30.09 848 25.04 -21.6 -6.8 65 -26.6 -15.8
04:20 1019 30.09 848 25.04 -21.6 -6.9 65 -26.6 -15.9
04:25 1019 30.09 848 25.04 -21.8 -7.2 66 -26.5 -15.8
04:30 1019 30.09 848 25.04 -21.9 -7.4 65 -26.7 -16.1
04:35 1019 30.09 848 25.04 -21.8 -7.3 65 -26.7 -16
04:40 1019 30.09 848 25.04 -21.8 -7.3 65 -26.7 -16.1
04:45 1019 30.09 848 25.04 -22 -7.5 65 -26.8 -16.3
04:50 1019 30.09 848 25.04 -22.3 -8.1 67 -26.9 -16.5
04:55 1019 30.09 848 25.04 -22.2 -8 66 -26.9 -16.5
05:00 1019 30.09 848 25.04 -22 -7.7 66 -26.8 -16.3
05:05 1019 30.09 848 25.04 -21.7 -7 65 -26.6 -15.9
05:10 1019 30.09 848 25.04 -21.4 -6.5 64 -26.5 -15.8
05:15 1019 30.09 848 25.04 -21.3 -6.3 64 -26.4 -15.6
05:20 1019 30.09 848 25.04 -21.2 -6.1 64 -26.3 -15.3
05:25 1019 30.09 848 25.04 -21.2 -6.2 65 -26.3 -15.3
05:30 1019 30.09 848 25.04 -21.5 -6.8 67 -26.1 -15
05:35 1019 30.09 848 25.04 -21.8 -7.2 67 -26.4 -15.5
05:40 1019 30.09 848 25.04 -22.1 -7.7 68 -26.4 -15.5
05:45 1019 30.09 848 25.04 -22.1 -7.7 67 -26.6 -15.9
05:50 1019 30.09 848 25.04 -22 -7.6 66 -26.7 -16
05:55 1019 30.09 848 25.04 -22.4 -8.2 67 -26.9 -16.4
06:00 1019 30.09 848 25.04 -22.4 -8.3 67 -26.9 -16.5
06:05 1019 30.09 848 25.04 -22.3 -8.2 67 -26.9 -16.4
06:10 1019 30.09 848 25.04 -22.4 -8.4 68 -26.8 -16.3
06:15 1019 30.09 848 25.04 -22.3 -8.2 67 -26.8 -16.3
06:20 1019 30.09 848 25.04 -22.3 -8.1 68 -26.7 -16
06:25 1019 30.09 848 25.04 -21.7 -7.1 70 -25.7 -14.3
06:30 1019 30.09 848 25.04 -21.3 -6.4 69 -25.5 -14
06:35 1019 30.09 848 25.04 -21.2 -6.1 69 -25.4 -13.6
06:40 1019 30.09 848 25.04 -21.6 -6.9 70 -25.7 -14.3
06:45 1019 30.09 848 25.04 -21.6 -7 69 -25.9 -14.7
06:50 1019 30.09 848 25.04 -21.6 -6.9 68 -25.9 -14.7
06:55 1019 30.09 848 25.04 -22 -7.5 70 -26.1 -14.9
07:00 1019 30.09 848 25.04 -21.8 -7.3 69 -26 -14.8
07:05 1019 30.09 848 25.04 -21.8 -7.3 68 -26.2 -15.2
07:10 1019 30.09 848 25.04 -21.9 -7.5 68 -26.4 -15.5
07:15 1019 30.09 848 25.04 -22.5 -8.5 70 -26.6 -15.9
07:20 1019 30.09 848 25.04 -22.5 -8.4 69 -26.6 -15.9
07:25 1019 30.09 848 25.04 -22.2 -8 68 -26.6 -15.9
07:30 1019 30.09 848 25.04 -22.3 -8.2 69 -26.6 -15.9
07:35 1019 30.09 848 25.04 -22.1 -7.8 68 -26.6 -15.8
07:40 1019 30.09 848 25.04 -21.9 -7.5 66 -26.6 -15.9
07:45 1019 30.09 848 25.04 -21.2 -6.2 63 -26.5 -15.7
07:50 1019 30.09 849 25.07 -20.9 -5.6 63 -26.1 -15.1
07:55 1019 30.09 849 25.07 -20.9 -5.6 63 -26.3 -15.3
08:00 1019 30.09 849 25.07 -21.1 -5.9 64 -26.3 -15.3
08:05 1019 30.09 849 25.07 -21 -5.8 65 -26 -14.8
08:10 1019 30.09 849 25.07 -20.4 -4.6 62 -25.8 -14.5
08:15 1020 30.12 849 25.07 -20.3 -4.5 62 -25.7 -14.3
08:20 1020 30.12 849 25.07 -20.3 -4.5 61 -26 -14.7
08:25 1020 30.12 849 25.07 -20.4 -4.6 62 -25.8 -14.4
08:30 1020 30.12 849 25.07 -20.1 -4.2 62 -25.6 -14.1
08:35 1020 30.12 849 25.07 -19.9 -3.7 62 -25.4 -13.8
08:40 1020 30.12 849 25.07 -19.4 -2.8 60 -25.3 -13.5
08:45 1020 30.12 849 25.07 -18.5 -1.3 56 -25.3 -13.5
08:50 1020 30.12 849 25.07 -18.2 -0.8 55 -25.1 -13.2
08:55 1020 30.12 849 25.07 -17.5 0.5 53 -24.9 -12.9
09:00 1020 30.12 849 25.07 -16.9 1.6 50 -25 -13.1
09:05 1020 30.12 849 25.07 -17 1.4 50 -25.1 -13.2
09:10 1020 30.12 849 25.07 -16.5 2.3 50 -24.6 -12.3
09:15 1020 30.12 849 25.07 -16.3 2.7 48 -24.8 -12.7
09:20 1020 30.12 849 25.07 -16.5 2.2 49 -24.9 -12.9
09:25 1020 30.12 849 25.07 -16 3.2 47 -24.9 -12.7
09:30 1020 30.12 849 25.07 -15.5 4.2 46 -24.7 -12.4
09:35 1020 30.12 849 25.07 -15 5 46 -24.3 -11.7
09:40 1020 30.12 849 25.07 -14.1 6.6 43 -24.3 -11.7
09:45 1020 30.12 849 25.07 -14 6.9 43 -24 -11.3
09:50 1020 30.12 849 25.07 -14.5 5.8 46 -23.8 -10.8
09:55 1020 30.12 849 25.07 -14.2 6.5 43 -24.1 -11.4
10:00 1020 30.12 849 25.07 -14.1 6.6 47 -23.2 -9.7
10:05 1019 30.09 849 25.07 -14.1 6.6 44 -23.9 -11
10:10 1019 30.09 849 25.07 -13.8 7.2 45 -23.4 -10.2
10:15 1019 30.09 849 25.07 -13.1 8.5 41 -23.8 -10.8
10:20 1019 30.09 849 25.07 -12.9 8.8 40 -23.7 -10.7
10:25 1019 30.09 849 25.07 -12.6 9.4 40 -23.7 -10.6
10:30 1019 30.09 849 25.07 -12.7 9.2 40 -23.6 -10.5
10:35 1019 30.09 849 25.07 -12.7 9.2 41 -23.4 -10.1
10:40 1019 30.09 848 25.04 -12.4 9.8 39 -23.6 -10.4
10:45 1019 30.09 848 25.04 -12.8 9 41 -23.4 -10.2
10:50 1019 30.09 848 25.04 -13.9 7.1 44 -23.6 -10.5
10:55 1019 30.09 848 25.04 -13.6 7.6 44 -23.5 -10.3
11:00 1019 30.09 848 25.04 -13.4 7.9 44 -23.1 -9.6
11:05 1019 30.09 848 25.04 -14 6.9 46 -23.2 -9.8
11:10 1019 30.09 848 25.04 -13.8 7.1 46 -23.1 -9.5
11:15 1019 30.09 848 25.04 -13.4 8 45 -23 -9.5
11:20 1019 30.09 848 25.04 -13.5 7.8 44 -23.2 -9.7
11:25 1019 30.09 848 25.04 -12.9 8.8 42 -23.4 -10.1
11:30 1019 30.09 848 25.04 -12.4 9.6 39 -23.7 -10.7
11:35 1019 30.09 848 25.04 -12.1 10.2 39 -23.3 -10
11:40 1019 30.09 848 25.04 -11 12.2 36 -23.4 -10.1
11:45 1019 30.09 848 25.04 -10.7 12.7 36 -23.1 -9.6
11:50 1019 30.09 848 25.04 -11 12.2 37 -23.2 -9.7
11:55 1019 30.09 848 25.04 -11 12.3 38 -22.8 -9.1
12:00 1019 30.09 848 25.04 -11.1 12.1 34 -23.9 -11.1
12:05 1019 30.09 848 25.04 -10.5 13.1 37 -22.7 -8.8
12:10 1019 30.09 848 25.04 -10.1 13.8 35 -22.8 -9
12:15 1018 30.06 848 25.04 -10 14 35 -22.9 -9.2
12:20 1018 30.06 848 25.04 -10.4 13.2 38 -22.1 -7.8
12:25 1018 30.06 848 25.04 -10.5 13 40 -21.8 -7.3
12:30 1018 30.06 848 25.04 -10.1 13.8 34 -23.1 -9.6
12:35 1018 30.06 847 25.01 -9.8 14.4 34 -22.8 -9.1
12:40 1018 30.06 847 25.01 -10.7 12.8 32 -24.2 -11.6
12:45 1018 30.06 847 25.01 -11 12.2 31 -25.1 -13.2
12:50 1018 30.06 847 25.01 -10.9 12.5 33 -24.4 -11.9
12:55 1018 30.06 847 25.01 -9.9 14.3 30 -24.5 -12
13:00 1018 30.06 847 25.01 -11.3 11.7 35 -23.9 -11.1
13:05 1018 30.06 847 25.01 -10.6 12.8 34 -23.8 -10.8
13:10 1018 30.06 847 25.01 -10.1 13.8 33 -23.6 -10.6
13:15 1018 30.06 847 25.01 -10.4 13.4 31 -24.4 -12
13:20 1018 30.06 847 25.01 -11.1 12 34 -24.1 -11.4
13:25 1018 30.06 847 25.01 -9.9 14.2 32 -23.8 -10.8
13:30 1018 30.06 847 25.01 -9 15.8 29 -24.2 -11.5
13:35 1018 30.06 847 25.01 -8.3 17.1 27 -24.3 -11.7
13:40 1017 30.03 847 25.01 -8.7 16.4 28 -24.1 -11.4
13:45 1017 30.03 847 25.01 -8.6 16.5 27 -24.4 -11.9
13:50 1017 30.03 847 25.01 -9.4 15.1 30 -23.9 -11
13:55 1017 30.03 846 24.98 -9.7 14.5 30 -24.2 -11.6
14:00 1017 30.03 847 25.01 -9.1 15.6 31 -23.4 -10.1
14:05 1017 30.03 847 25.01 -8.8 16.1 28 -24.1 -11.4
14:10 1017 30.03 846 24.98 -8.9 15.9 29 -23.8 -10.8
14:15 1017 30.03 846 24.98 -9.3 15.4 31 -23.4 -10.1
14:20 1017 30.03 846 24.98 -9.4 15.2 30 -23.9 -10.9
14:25 1017 30.03 846 24.98 -9.3 15.3 32 -23.3 -9.9
14:30 1017 30.03 846 24.98 -9 15.8 29 -24 -11.2
14:35 1017 30.03 846 24.98 -8.7 16.4 28 -24 -11.2
14:40 1017 30.03 846 24.98 -8.7 16.3 30 -23.3 -9.9
14:45 1017 30.03 846 24.98 -8.7 16.4 31 -23.1 -9.6
14:50 1017 30.03 846 24.98 -8.9 15.9 31 -23.2 -9.7
14:55 1017 30.03 846 24.98 -8.1 17.5 30 -22.9 -9.2
15:00 1017 30.03 846 24.98 -7.9 17.9 30 -22.8 -9
15:05 1017 30.03 846 24.98 -8.7 16.3 32 -22.5 -8.5
15:10 1017 30.03 846 24.98 -8.1 17.5 29 -23.1 -9.5
15:15 1017 30.03 846 24.98 -7.8 17.9 30 -22.6 -8.7
15:20 1017 30.03 846 24.98 -7.8 18 30 -22.4 -8.3
15:25 1017 30.03 846 24.98 -8.1 17.4 33 -21.9 -7.3
15:30 1017 30.03 846 24.98 -8.3 17.2 33 -21.9 -7.4
15:35 1017 30.03 846 24.98 -8.8 16.2 34 -22.2 -7.9
15:40 1017 30.03 846 24.98 -9.1 15.6 35 -21.9 -7.5
15:45 1017 30.03 846 24.98 -8.6 16.5 33 -22.2 -8
15:50 1016 30 846 24.98 -8.3 17.1 33 -21.7 -7.1
15:55 1016 30 846 24.98 -8.2 17.2 33 -21.8 -7.3
16:00 1016 30 846 24.98 -7.9 17.8 31 -22.1 -7.8
16:05 1016 30 845 24.95 -8.2 17.3 32 -22 -7.7
16:10 1016 30 845 24.95 -9 15.8 34 -22.1 -7.8
16:15 1016 30 845 24.95 -9 15.8 34 -22.3 -8.1
16:20 1016 30 845 24.95 -8.5 16.6 32 -22.4 -8.3
16:25 1016 30 845 24.95 -7.9 17.7 32 -22.1 -7.8
16:30 1016 30 845 24.95 -7.4 18.7 30 -22.2 -7.9
16:35 1016 30 845 24.95 -7.4 18.7 31 -21.9 -7.5
16:40 1016 30 845 24.95 -7.8 17.9 31 -22.1 -7.7
16:45 1016 30 845 24.95 -7.9 17.8 32 -21.9 -7.5
16:50 1016 30 845 24.95 -7.5 18.4 30 -22.2 -7.9
16:55 1016 30 845 24.95 -7.5 18.6 32 -21.6 -6.9
17:00 1016 30 845 24.95 -7.7 18.1 32 -21.9 -7.5
17:05 1016 30 845 24.95 -8.2 17.2 32 -22.1 -7.7
17:10 1016 30 845 24.95 -7.9 17.9 31 -22.2 -7.9
17:15 1016 30 845 24.95 -7.9 17.8 31 -22.2 -8
17:20 1016 30 845 24.95 -8.1 17.5 31 -22.5 -8.4
17:25 1016 30 845 24.95 -8.3 17.1 31 -22.5 -8.5
17:30 1016 30 845 24.95 -9.3 15.3 33 -22.8 -9
17:35 1015 29.97 845 24.95 -9.7 14.6 34 -22.9 -9.2
17:40 1015 29.97 845 24.95 -9.8 14.4 34 -22.9 -9.2
17:45 1015 29.97 845 24.95 -9.8 14.4 34 -23 -9.3
17:50 1015 29.97 844 24.92 -9.9 14.1 34 -23 -9.4
17:55 1015 29.97 844 24.92 -10.2 13.6 35 -22.9 -9.2
18:00 1015 29.97 844 24.92 -10.3 13.4 35 -22.9 -9.3
18:05 1015 29.97 844 24.92 -10.4 13.2 36 -22.9 -9.2
18:10 1015 29.97 844 24.92 -10.4 13.2 37 -22.7 -8.8
18:15 1015 29.97 844 24.92 -10.6 13 37 -22.6 -8.7
18:20 1015 29.97 844 24.92 -10.7 12.8 36 -23 -9.4
18:25 1015 29.97 844 24.92 -10.5 13 39 -22.1 -7.9
18:30 1015 29.97 844 24.92 -10.3 13.4 38 -22 -7.7
18:35 1015 29.97 844 24.92 -10.4 13.2 39 -22 -7.6
18:40 1015 29.97 844 24.92 -10.6 12.8 39 -22.1 -7.8
18:45 1015 29.97 844 24.92 -10.9 12.3 41 -21.7 -7.1
18:50 1015 29.97 844 24.92 -10.8 12.5 42 -21.4 -6.5
18:55 1015 29.97 844 24.92 -10.7 12.7 43 -21.1 -6
19:00 1015 29.97 845 24.95 -11 12.2 45 -20.7 -5.3
19:05 1015 29.97 845 24.95 -11.3 11.6 44 -21.2 -6.1
19:10 1015 29.97 845 24.95 -11.1 12 45 -20.8 -5.4
19:15 1015 29.97 845 24.95 -11.1 12 46 -20.5 -5
19:20 1015 29.97 845 24.95 -11.4 11.6 49 -20 -4
19:25 1015 29.97 845 24.95 -11.7 11 50 -20.2 -4.3
19:30 1015 29.97 845 24.95 -11.5 11.3 50 -20 -4
19:35 1015 29.97 845 24.95 -11.6 11.1 50 -20.1 -4.2
19:40 1015 29.97 845 24.95 -12.4 9.6 53 -20.2 -4.4
19:45 1015 29.97 845 24.95 -13.1 8.5 56 -20.2 -4.4
19:50 1015 29.97 845 24.95 -12.9 8.8 54 -20.4 -4.7
19:55 1015 29.97 845 24.95 -12.8 9 53 -20.4 -4.8
20:00 1016 30 845 24.95 -12.6 9.4 54 -20.1 -4.1
20:05 1016 30 845 24.95 -12.3 9.8 52 -20.2 -4.3
20:10 1015 29.97 845 24.95 -12.2 10 55 -19.5 -3.2
20:15 1016 30 845 24.95 -12.3 9.8 54 -19.8 -3.6
20:20 1016 30 845 24.95 -12.5 9.4 56 -19.6 -3.2
20:25 1016 30 845 24.95 -12.7 9.1 57 -19.5 -3.1
20:30 1016 30 845 24.95 -13 8.5 59 -19.4 -3
20:35 1016 30 845 24.95 -13 8.5 60 -19.2 -2.6
20:40 1016 30 845 24.95 -13 8.6 64 -18.5 -1.3
20:45 1016 30 845 24.95 -12.8 9 63 -18.4 -1.2
20:50 1016 30 845 24.95 -12.6 9.3 63 -18.3 -0.9
20:55 1016 30 845 24.95 -12.3 9.8 60 -18.6 -1.5
21:00 1016 30 845 24.95 -12.5 9.5 62 -18.4 -1.1
21:05 1016 30 845 24.95 -12.7 9.2 63 -18.3 -1
21:10 1016 30 845 24.95 -12.6 9.4 65 -17.8 -0.1
21:15 1016 30 845 24.95 -12.6 9.4 65 -18 -0.3
21:20 1016 30 845 24.95 -12.7 9.1 65 -18.1 -0.5
21:25 1016 30 845 24.95 -12.8 9 66 -17.8 -0
21:30 1016 30 845 24.95 -12.7 9.1 67 -17.7 0.1
21:35 1016 30 845 24.95 -12.7 9.2 66 -17.7 0.1
21:40 1016 30 845 24.95 -12.7 9.1 67 -17.5 0.4
21:45 1016 30 845 24.95 -12.7 9.1 66 -17.9 -0.2
21:50 1016 30 845 24.95 -11.7 10.9 62 -17.7 0.2
21:55 1016 30 845 24.95 -11.8 10.8 65 -17.2 1.1
22:00 1016 30 845 24.95 -12.1 10.2 63 -17.9 -0.1
22:05 1016 30 845 24.95 -11.9 10.7 60 -18.1 -0.6
22:10 1016 30 845 24.95 -11.9 10.6 62 -17.8 0
22:15 1016 30 845 24.95 -11.7 10.9 61 -17.8 -0.1
22:20 1016 30 845 24.95 -11.8 10.8 62 -17.6 0.3
22:25 1016 30 845 24.95 -11.9 10.5 62 -17.9 -0.2
22:30 1016 30 845 24.95 -12.1 10.3 63 -17.8 -0.1
22:35 1016 30 845 24.95 -12.1 10.3 63 -17.8 -0
22:40 1016 30 845 24.95 -12.1 10.3 63 -17.8 -0.1
22:45 1016 30 845 24.95 -12.4 9.7 64 -17.8 -0.1
22:50 1016 30 845 24.95 -12.6 9.2 68 -17.5 0.6
22:55 1016 30 845 24.95 -12.9 8.7 66 -18 -0.3
23:00 1016 30 845 24.95 -12.7 9.2 64 -18.2 -0.8
23:05 1016 30 845 24.95 -12.2 10 66 -17.3 0.9
23:10 1016 30 845 24.95 -12.1 10.3 63 -17.8 -0.1
23:15 1016 30 845 24.95 -12.3 9.9 65 -17.5 0.5
23:20 1016 30 845 24.95 -12.3 10 67 -17.2 1
23:25 1016 30 845 24.95 -12.4 9.7 65 -17.7 0.1
23:30 1016 30 845 24.95 -12.2 10 68 -17 1.5
23:35 1016 30 845 24.95 -12.3 9.8 71 -16.5 2.3
23:40 1016 30 845 24.95 -12.6 9.4 72 -16.7 2
23:45 1016 30 845 24.95 -12.6 9.4 67 -17.6 0.4
23:50 1016 30 845 24.95 -12.7 9.2 68 -17.4 0.7
23:55 1016 30 845 24.95 -12.7 9.2 68 -17.5 0.6
24:00 1016 30 845 24.95 -12.3 9.8 68 -17 1.4